sensor_id;sensor_type;location;lat;lon;timestamp;pressure;altitude;pressure_sealevel;temperature;humidity
10348;BME280;5220;43.192;23.284;2022-09-12T00:01:03;96799.88;;;18.12;74.00
10348;BME280;5220;43.192;23.284;2022-09-12T00:06:53;96804.84;;;18.23;74.71
10348;BME280;5220;43.192;23.284;2022-09-12T00:09:20;96808.00;;;18.27;73.94
10348;BME280;5220;43.192;23.284;2022-09-12T00:11:46;96808.31;;;18.32;73.02
10348;BME280;5220;43.192;23.284;2022-09-12T00:14:15;96804.19;;;18.30;73.07
10348;BME280;5220;43.192;23.284;2022-09-12T00:16:43;96802.56;;;18.37;73.05
10348;BME280;5220;43.192;23.284;2022-09-12T00:19:11;96806.19;;;18.36;72.47
10348;BME280;5220;43.192;23.284;2022-09-12T00:21:39;96810.28;;;18.30;72.32
10348;BME280;5220;43.192;23.284;2022-09-12T00:24:07;96803.38;;;18.29;72.40
10348;BME280;5220;43.192;23.284;2022-09-12T00:26:34;96806.47;;;18.24;72.90
10348;BME280;5220;43.192;23.284;2022-09-12T00:29:01;96805.19;;;18.28;72.54
10348;BME280;5220;43.192;23.284;2022-09-12T00:31:28;96798.28;;;18.27;72.26
10348;BME280;5220;43.192;23.284;2022-09-12T00:33:57;96794.47;;;18.22;72.11
10348;BME280;5220;43.192;23.284;2022-09-12T00:36:26;96806.66;;;18.15;72.29
10348;BME280;5220;43.192;23.284;2022-09-12T00:38:53;96800.19;;;18.09;72.66
10348;BME280;5220;43.192;23.284;2022-09-12T00:41:23;96812.72;;;18.07;72.52
10348;BME280;5220;43.192;23.284;2022-09-12T00:43:52;96806.13;;;17.95;73.28
10348;BME280;5220;43.192;23.284;2022-09-12T00:46:33;96802.66;;;17.87;73.27
10348;BME280;5220;43.192;23.284;2022-09-12T00:49:05;96797.66;;;17.76;73.58
10348;BME280;5220;43.192;23.284;2022-09-12T00:51:35;96800.47;;;17.74;73.80
10348;BME280;5220;43.192;23.284;2022-09-12T00:54:07;96790.91;;;17.65;74.29
10348;BME280;5220;43.192;23.284;2022-09-12T00:56:39;96792.56;;;17.74;74.37
10348;BME280;5220;43.192;23.284;2022-09-12T00:59:12;96790.13;;;17.81;74.45
10348;BME280;5220;43.192;23.284;2022-09-12T01:01:41;96792.91;;;17.79;74.03
10348;BME280;5220;43.192;23.284;2022-09-12T01:04:09;96794.75;;;17.87;73.47
10348;BME280;5220;43.192;23.284;2022-09-12T01:06:40;96793.91;;;17.86;73.07
10348;BME280;5220;43.192;23.284;2022-09-12T01:09:08;96797.53;;;17.85;72.86
10348;BME280;5220;43.192;23.284;2022-09-12T01:11:39;96801.13;;;17.84;72.95
10348;BME280;5220;43.192;23.284;2022-09-12T01:14:07;96804.09;;;17.81;72.72
10348;BME280;5220;43.192;23.284;2022-09-12T01:16:35;96795.22;;;17.74;72.92
10348;BME280;5220;43.192;23.284;2022-09-12T01:19:16;96792.56;;;17.74;72.83
10348;BME280;5220;43.192;23.284;2022-09-12T01:22:02;96800.94;;;17.69;72.60
10348;BME280;5220;43.192;23.284;2022-09-12T01:25:09;96800.28;;;17.67;73.02
10348;BME280;5220;43.192;23.284;2022-09-12T01:27:50;96796.50;;;17.70;72.87
10348;BME280;5220;43.192;23.284;2022-09-12T01:30:32;96797.47;;;17.69;72.66
10348;BME280;5220;43.192;23.284;2022-09-12T01:33:38;96798.78;;;17.65;72.21
10348;BME280;5220;43.192;23.284;2022-09-12T01:36:30;96797.69;;;17.50;72.10
10348;BME280;5220;43.192;23.284;2022-09-12T01:39:01;96796.50;;;17.36;72.22
10348;BME280;5220;43.192;23.284;2022-09-12T01:41:34;96796.75;;;17.25;73.14
10348;BME280;5220;43.192;23.284;2022-09-12T01:44:10;96789.81;;;17.16;73.40
10348;BME280;5220;43.192;23.284;2022-09-12T01:46:44;96783.56;;;17.09;73.81
10348;BME280;5220;43.192;23.284;2022-09-12T01:49:16;96782.88;;;17.07;74.06
10348;BME280;5220;43.192;23.284;2022-09-12T01:51:53;96780.44;;;17.13;74.55
10348;BME280;5220;43.192;23.284;2022-09-12T01:54:25;96783.72;;;17.15;74.09
10348;BME280;5220;43.192;23.284;2022-09-12T01:56:56;96787.03;;;17.17;73.17
10348;BME280;5220;43.192;23.284;2022-09-12T01:59:28;96784.88;;;17.13;73.65
10348;BME280;5220;43.192;23.284;2022-09-12T02:02:01;96786.66;;;17.12;73.26
10348;BME280;5220;43.192;23.284;2022-09-12T02:04:34;96780.94;;;17.09;72.23
10348;BME280;5220;43.192;23.284;2022-09-12T02:07:07;96787.25;;;16.98;72.64
10348;BME280;5220;43.192;23.284;2022-09-12T02:09:40;96778.22;;;16.93;73.79
10348;BME280;5220;43.192;23.284;2022-09-12T02:12:11;96776.34;;;16.85;73.14
10348;BME280;5220;43.192;23.284;2022-09-12T02:18:04;96769.94;;;16.88;73.89
10348;BME280;5220;43.192;23.284;2022-09-12T02:20:33;96773.78;;;16.93;73.26
10348;BME280;5220;43.192;23.284;2022-09-12T02:23:05;96771.50;;;16.98;72.81
10348;BME280;5220;43.192;23.284;2022-09-12T02:25:37;96772.84;;;17.02;72.77
10348;BME280;5220;43.192;23.284;2022-09-12T02:28:10;96779.94;;;17.10;72.52
10348;BME280;5220;43.192;23.284;2022-09-12T02:30:43;96780.41;;;17.05;72.44
10348;BME280;5220;43.192;23.284;2022-09-12T02:33:19;96780.41;;;17.05;72.53
10348;BME280;5220;43.192;23.284;2022-09-12T02:35:52;96783.81;;;16.98;72.27
10348;BME280;5220;43.192;23.284;2022-09-12T02:38:26;96785.81;;;17.04;73.27
10348;BME280;5220;43.192;23.284;2022-09-12T02:40:55;96781.03;;;16.99;72.55
10348;BME280;5220;43.192;23.284;2022-09-12T02:43:22;96777.09;;;17.03;72.22
10348;BME280;5220;43.192;23.284;2022-09-12T02:45:49;96776.78;;;17.06;72.41
10348;BME280;5220;43.192;23.284;2022-09-12T02:48:20;96775.16;;;17.05;72.06
10348;BME280;5220;43.192;23.284;2022-09-12T02:50:48;96783.88;;;17.06;72.32
10348;BME280;5220;43.192;23.284;2022-09-12T02:53:16;96770.34;;;17.01;72.00
10348;BME280;5220;43.192;23.284;2022-09-12T02:55:44;96772.22;;;17.08;72.08
10348;BME280;5220;43.192;23.284;2022-09-12T02:58:13;96764.34;;;17.08;71.55
10348;BME280;5220;43.192;23.284;2022-09-12T03:00:46;96764.97;;;17.02;71.44
10348;BME280;5220;43.192;23.284;2022-09-12T03:03:28;96772.13;;;16.92;71.28
10348;BME280;5220;43.192;23.284;2022-09-12T03:05:59;96767.94;;;16.82;72.36
10348;BME280;5220;43.192;23.284;2022-09-12T03:08:40;96774.59;;;16.68;72.50
10348;BME280;5220;43.192;23.284;2022-09-12T03:11:30;96778.16;;;16.59;72.59
10348;BME280;5220;43.192;23.284;2022-09-12T03:14:07;96777.72;;;16.54;72.50
10348;BME280;5220;43.192;23.284;2022-09-12T03:16:45;96782.16;;;16.53;73.53
10348;BME280;5220;43.192;23.284;2022-09-12T03:19:22;96784.94;;;16.52;73.87
10348;BME280;5220;43.192;23.284;2022-09-12T03:21:58;96785.09;;;16.50;73.79
10348;BME280;5220;43.192;23.284;2022-09-12T03:24:32;96784.88;;;16.61;73.49
10348;BME280;5220;43.192;23.284;2022-09-12T03:27:07;96778.81;;;16.61;74.14
10348;BME280;5220;43.192;23.284;2022-09-12T03:29:37;96780.69;;;16.69;73.10
10348;BME280;5220;43.192;23.284;2022-09-12T03:32:04;96787.25;;;16.73;73.27
10348;BME280;5220;43.192;23.284;2022-09-12T03:34:44;96780.50;;;16.70;73.70
10348;BME280;5220;43.192;23.284;2022-09-12T03:37:11;96772.81;;;16.69;73.11
10348;BME280;5220;43.192;23.284;2022-09-12T03:39:38;96780.16;;;16.65;72.96
10348;BME280;5220;43.192;23.284;2022-09-12T03:42:04;96777.97;;;16.60;72.82
10348;BME280;5220;43.192;23.284;2022-09-12T03:44:31;96780.09;;;16.57;72.82
10348;BME280;5220;43.192;23.284;2022-09-12T03:46:58;96780.97;;;16.48;73.63
10348;BME280;5220;43.192;23.284;2022-09-12T03:49:24;96782.47;;;16.50;73.71
10348;BME280;5220;43.192;23.284;2022-09-12T03:51:52;96783.84;;;16.54;73.35
10348;BME280;5220;43.192;23.284;2022-09-12T03:54:19;96784.88;;;16.61;74.28
10348;BME280;5220;43.192;23.284;2022-09-12T03:56:46;96781.13;;;16.64;74.76
10348;BME280;5220;43.192;23.284;2022-09-12T03:59:12;96789.66;;;16.66;74.73
10348;BME280;5220;43.192;23.284;2022-09-12T04:01:39;96792.06;;;16.77;74.98
10348;BME280;5220;43.192;23.284;2022-09-12T04:07:29;96783.28;;;16.94;73.65
10348;BME280;5220;43.192;23.284;2022-09-12T04:09:56;96782.63;;;16.92;73.33
10348;BME280;5220;43.192;23.284;2022-09-12T04:12:23;96783.38;;;16.85;74.22
10348;BME280;5220;43.192;23.284;2022-09-12T04:18:11;96787.56;;;16.95;74.68
10348;BME280;5220;43.192;23.284;2022-09-12T04:20:38;96787.28;;;17.06;75.67
10348;BME280;5220;43.192;23.284;2022-09-12T04:23:06;96788.34;;;17.13;73.66
10348;BME280;5220;43.192;23.284;2022-09-12T04:25:32;96780.00;;;17.18;73.54
10348;BME280;5220;43.192;23.284;2022-09-12T04:27:59;96784.75;;;17.23;72.93
10348;BME280;5220;43.192;23.284;2022-09-12T04:30:26;96790.38;;;17.28;72.55
10348;BME280;5220;43.192;23.284;2022-09-12T04:32:53;96786.63;;;17.30;73.20
10348;BME280;5220;43.192;23.284;2022-09-12T04:35:19;96786.81;;;17.37;72.98
10348;BME280;5220;43.192;23.284;2022-09-12T04:37:46;96779.13;;;17.43;73.32
10348;BME280;5220;43.192;23.284;2022-09-12T04:40:14;96782.91;;;17.49;72.77
10348;BME280;5220;43.192;23.284;2022-09-12T04:42:41;96788.50;;;17.54;72.97
10348;BME280;5220;43.192;23.284;2022-09-12T04:45:35;96789.56;;;17.61;73.22
10348;BME280;5220;43.192;23.284;2022-09-12T04:48:02;96778.38;;;17.59;72.55
10348;BME280;5220;43.192;23.284;2022-09-12T04:50:29;96790.53;;;17.60;72.86
10348;BME280;5220;43.192;23.284;2022-09-12T04:52:56;96789.06;;;17.57;72.61
10348;BME280;5220;43.192;23.284;2022-09-12T04:55:24;96789.06;;;17.57;73.27
10348;BME280;5220;43.192;23.284;2022-09-12T04:57:50;96786.06;;;17.52;73.41
10348;BME280;5220;43.192;23.284;2022-09-12T05:00:18;96787.69;;;17.53;73.58
10348;BME280;5220;43.192;23.284;2022-09-12T05:02:45;96783.25;;;17.54;73.50
10348;BME280;5220;43.192;23.284;2022-09-12T05:05:12;96786.28;;;17.59;74.35
10348;BME280;5220;43.192;23.284;2022-09-12T05:07:39;96787.13;;;17.67;74.50
10348;BME280;5220;43.192;23.284;2022-09-12T05:10:06;96798.50;;;17.76;74.40
10348;BME280;5220;43.192;23.284;2022-09-12T05:12:35;96789.31;;;17.80;74.88
10348;BME280;5220;43.192;23.284;2022-09-12T05:15:02;96800.66;;;17.81;74.70
10348;BME280;5220;43.192;23.284;2022-09-12T05:17:29;96802.13;;;17.83;75.44
10348;BME280;5220;43.192;23.284;2022-09-12T05:19:55;96807.22;;;17.85;75.40
10348;BME280;5220;43.192;23.284;2022-09-12T05:22:22;96803.09;;;17.82;75.58
10348;BME280;5220;43.192;23.284;2022-09-12T05:25:08;96806.56;;;17.83;75.75
10348;BME280;5220;43.192;23.284;2022-09-12T05:27:36;96808.38;;;17.90;75.60
10348;BME280;5220;43.192;23.284;2022-09-12T05:33:39;96811.38;;;17.95;76.44
10348;BME280;5220;43.192;23.284;2022-09-12T05:36:10;96815.03;;;18.02;76.25
10348;BME280;5220;43.192;23.284;2022-09-12T05:38:37;96802.19;;;18.07;75.68
10348;BME280;5220;43.192;23.284;2022-09-12T05:41:06;96801.69;;;18.04;76.40
10348;BME280;5220;43.192;23.284;2022-09-12T05:43:35;96810.22;;;18.06;76.43
10348;BME280;5220;43.192;23.284;2022-09-12T05:46:02;96809.44;;;18.13;75.48
10348;BME280;5220;43.192;23.284;2022-09-12T05:48:29;96810.09;;;18.15;75.82
10348;BME280;5220;43.192;23.284;2022-09-12T05:50:59;96803.84;;;18.16;76.38
10348;BME280;5220;43.192;23.284;2022-09-12T05:53:27;96799.22;;;18.18;76.87
10348;BME280;5220;43.192;23.284;2022-09-12T05:56:02;96793.47;;;18.31;75.71
10348;BME280;5220;43.192;23.284;2022-09-12T05:58:28;96800.25;;;18.34;75.05
10348;BME280;5220;43.192;23.284;2022-09-12T06:01:00;96792.34;;;18.34;75.67
10348;BME280;5220;43.192;23.284;2022-09-12T06:03:27;96798.59;;;18.41;76.95
10348;BME280;5220;43.192;23.284;2022-09-12T06:05:54;96804.53;;;18.43;76.52
10348;BME280;5220;43.192;23.284;2022-09-12T06:08:20;96803.22;;;18.47;76.09
10348;BME280;5220;43.192;23.284;2022-09-12T06:10:47;96802.56;;;18.53;76.08
10348;BME280;5220;43.192;23.284;2022-09-12T06:13:14;96798.31;;;18.60;75.94
10348;BME280;5220;43.192;23.284;2022-09-12T06:15:41;96797.00;;;18.64;75.87
10348;BME280;5220;43.192;23.284;2022-09-12T06:18:09;96788.56;;;18.68;76.44
10348;BME280;5220;43.192;23.284;2022-09-12T06:20:36;96795.34;;;18.71;76.09
10348;BME280;5220;43.192;23.284;2022-09-12T06:23:03;96796.66;;;18.75;76.41
10348;BME280;5220;43.192;23.284;2022-09-12T06:25:30;96788.41;;;18.78;77.23
10348;BME280;5220;43.192;23.284;2022-09-12T06:27:56;96797.31;;;18.85;77.51
10348;BME280;5220;43.192;23.284;2022-09-12T06:30:23;96793.16;;;18.91;77.43
10348;BME280;5220;43.192;23.284;2022-09-12T06:32:50;96794.97;;;18.98;77.64
10348;BME280;5220;43.192;23.284;2022-09-12T06:35:18;96796.13;;;19.04;76.67
10348;BME280;5220;43.192;23.284;2022-09-12T06:37:45;96791.34;;;19.07;77.60
10348;BME280;5220;43.192;23.284;2022-09-12T06:43:34;96783.38;;;19.23;75.10
10348;BME280;5220;43.192;23.284;2022-09-12T06:46:09;96785.34;;;19.29;74.06
10348;BME280;5220;43.192;23.284;2022-09-12T06:48:54;96785.97;;;19.31;72.47
10348;BME280;5220;43.192;23.284;2022-09-12T06:51:23;96797.50;;;19.39;66.42
10348;BME280;5220;43.192;23.284;2022-09-12T06:53:53;96800.81;;;19.49;67.10
10348;BME280;5220;43.192;23.284;2022-09-12T06:56:25;96793.00;;;19.55;67.62
10348;BME280;5220;43.192;23.284;2022-09-12T06:58:54;96793.50;;;19.59;68.42
10348;BME280;5220;43.192;23.284;2022-09-12T07:04:24;96793.28;;;19.68;64.70
10348;BME280;5220;43.192;23.284;2022-09-12T07:07:03;96801.97;;;19.85;64.06
10348;BME280;5220;43.192;23.284;2022-09-12T07:09:30;96789.88;;;19.91;63.99
10348;BME280;5220;43.192;23.284;2022-09-12T07:11:57;96792.69;;;19.89;61.94
10348;BME280;5220;43.192;23.284;2022-09-12T07:14:31;96786.06;;;19.93;61.12
10348;BME280;5220;43.192;23.284;2022-09-12T07:17:00;96801.19;;;20.07;62.36
10348;BME280;5220;43.192;23.284;2022-09-12T07:19:28;96791.19;;;19.95;61.51
10348;BME280;5220;43.192;23.284;2022-09-12T07:22:09;96790.91;;;20.12;61.45
10348;BME280;5220;43.192;23.284;2022-09-12T07:24:37;96794.78;;;20.32;60.75
10348;BME280;5220;43.192;23.284;2022-09-12T07:27:05;96795.31;;;20.20;59.95
10348;BME280;5220;43.192;23.284;2022-09-12T07:29:33;96805.84;;;20.28;60.52
10348;BME280;5220;43.192;23.284;2022-09-12T07:32:00;96799.84;;;20.34;60.63
10348;BME280;5220;43.192;23.284;2022-09-12T07:34:43;96801.09;;;20.46;60.77
10348;BME280;5220;43.192;23.284;2022-09-12T07:37:16;96789.00;;;20.52;60.49
10348;BME280;5220;43.192;23.284;2022-09-12T07:39:44;96807.19;;;20.69;59.98
10348;BME280;5220;43.192;23.284;2022-09-12T07:42:11;96795.72;;;20.77;59.93
10348;BME280;5220;43.192;23.284;2022-09-12T07:44:55;96804.41;;;20.85;60.91
10348;BME280;5220;43.192;23.284;2022-09-12T07:47:32;96807.53;;;20.89;60.38
10348;BME280;5220;43.192;23.284;2022-09-12T07:50:02;96803.97;;;20.97;61.05
10348;BME280;5220;43.192;23.284;2022-09-12T07:52:35;96805.16;;;20.94;60.82
10348;BME280;5220;43.192;23.284;2022-09-12T07:55:16;96803.13;;;20.81;59.80
10348;BME280;5220;43.192;23.284;2022-09-12T07:57:44;96805.16;;;20.94;60.22
10348;BME280;5220;43.192;23.284;2022-09-12T08:00:15;96802.66;;;20.92;61.10
10348;BME280;5220;43.192;23.284;2022-09-12T08:02:49;96805.88;;;21.03;61.13
10348;BME280;5220;43.192;23.284;2022-09-12T08:11:56;96797.44;;;21.07;59.93
10348;BME280;5220;43.192;23.284;2022-09-12T08:17:15;96804.50;;;21.29;58.98
10348;BME280;5220;43.192;23.284;2022-09-12T08:19:42;96799.47;;;21.34;58.50
10348;BME280;5220;43.192;23.284;2022-09-12T08:22:09;96794.53;;;21.17;57.66
10348;BME280;5220;43.192;23.284;2022-09-12T08:24:42;96801.84;;;21.29;57.67
10348;BME280;5220;43.192;23.284;2022-09-12T08:27:10;96795.47;;;21.38;58.80
10348;BME280;5220;43.192;23.284;2022-09-12T08:29:38;96776.38;;;21.28;58.51
10348;BME280;5220;43.192;23.284;2022-09-12T08:32:05;96778.66;;;21.31;58.69
10348;BME280;5220;43.192;23.284;2022-09-12T08:34:49;96782.13;;;21.17;58.43
10348;BME280;5220;43.192;23.284;2022-09-12T08:37:23;96776.13;;;21.38;58.48
10348;BME280;5220;43.192;23.284;2022-09-12T08:40:01;96771.66;;;21.38;57.12
10348;BME280;5220;43.192;23.284;2022-09-12T08:42:47;96776.63;;;21.63;56.75
10348;BME280;5220;43.192;23.284;2022-09-12T08:45:22;96788.75;;;21.72;56.42
10348;BME280;5220;43.192;23.284;2022-09-12T08:48:07;96786.81;;;21.80;57.57
10348;BME280;5220;43.192;23.284;2022-09-12T08:50:37;96772.22;;;21.84;55.98
10348;BME280;5220;43.192;23.284;2022-09-12T08:53:27;96776.13;;;22.03;56.33
10348;BME280;5220;43.192;23.284;2022-09-12T08:55:58;96764.56;;;22.11;55.60
10348;BME280;5220;43.192;23.284;2022-09-12T08:58:28;96760.69;;;22.07;55.06
10348;BME280;5220;43.192;23.284;2022-09-12T09:01:06;96772.97;;;22.14;56.29
10348;BME280;5220;43.192;23.284;2022-09-12T09:03:59;96764.91;;;22.22;55.82
10348;BME280;5220;43.192;23.284;2022-09-12T09:06:43;96761.75;;;22.12;55.93
10348;BME280;5220;43.192;23.284;2022-09-12T09:09:22;96773.09;;;22.27;55.82
10348;BME280;5220;43.192;23.284;2022-09-12T09:11:58;96768.25;;;22.31;54.61
10348;BME280;5220;43.192;23.284;2022-09-12T09:17:51;96755.69;;;22.39;54.29
10348;BME280;5220;43.192;23.284;2022-09-12T09:20:25;96762.69;;;22.47;53.89
10348;BME280;5220;43.192;23.284;2022-09-12T09:26:18;96762.50;;;22.27;54.00
10348;BME280;5220;43.192;23.284;2022-09-12T09:28:53;96760.84;;;22.26;53.42
10348;BME280;5220;43.192;23.284;2022-09-12T09:31:23;96759.47;;;22.30;53.95
10348;BME280;5220;43.192;23.284;2022-09-12T09:40:26;96761.81;;;21.98;53.41
10348;BME280;5220;43.192;23.284;2022-09-12T09:43:01;96756.22;;;21.92;53.46
10348;BME280;5220;43.192;23.284;2022-09-12T09:45:31;96760.97;;;21.97;53.19
10348;BME280;5220;43.192;23.284;2022-09-12T09:48:02;96768.47;;;21.93;53.57
10348;BME280;5220;43.192;23.284;2022-09-12T09:50:37;96770.41;;;21.85;53.25
10348;BME280;5220;43.192;23.284;2022-09-12T09:53:31;96767.09;;;21.83;52.14
10348;BME280;5220;43.192;23.284;2022-09-12T09:56:08;96775.84;;;21.83;52.79
10348;BME280;5220;43.192;23.284;2022-09-12T09:58:38;96773.41;;;21.82;52.33
10348;BME280;5220;43.192;23.284;2022-09-12T10:01:11;96768.13;;;21.82;52.22
10348;BME280;5220;43.192;23.284;2022-09-12T10:03:51;96773.50;;;21.74;52.57
10348;BME280;5220;43.192;23.284;2022-09-12T10:06:24;96767.00;;;21.76;51.78
10348;BME280;5220;43.192;23.284;2022-09-12T10:09:04;96766.66;;;21.79;53.13
10348;BME280;5220;43.192;23.284;2022-09-12T10:11:33;96763.28;;;21.71;52.48
10348;BME280;5220;43.192;23.284;2022-09-12T10:13:59;96766.38;;;21.74;51.88
10348;BME280;5220;43.192;23.284;2022-09-12T10:16:28;96765.56;;;21.74;54.41
10348;BME280;5220;43.192;23.284;2022-09-12T10:18:56;96761.91;;;21.75;54.20
10348;BME280;5220;43.192;23.284;2022-09-12T10:21:31;96761.84;;;21.68;53.30
10348;BME280;5220;43.192;23.284;2022-09-12T10:27:16;96762.38;;;21.78;55.65
10348;BME280;5220;43.192;23.284;2022-09-12T10:29:47;96764.66;;;21.81;56.38
10348;BME280;5220;43.192;23.284;2022-09-12T10:32:21;96760.72;;;21.77;54.56
10348;BME280;5220;43.192;23.284;2022-09-12T10:34:52;96760.28;;;21.88;53.45
10348;BME280;5220;43.192;23.284;2022-09-12T10:37:24;96754.31;;;22.01;53.79
10348;BME280;5220;43.192;23.284;2022-09-12T10:39:53;96757.97;;;21.85;52.96
10348;BME280;5220;43.192;23.284;2022-09-12T10:42:46;96758.34;;;21.97;53.42
10348;BME280;5220;43.192;23.284;2022-09-12T10:45:21;96758.13;;;21.98;53.87
10348;BME280;5220;43.192;23.284;2022-09-12T10:47:49;96760.38;;;22.16;53.60
10348;BME280;5220;43.192;23.284;2022-09-12T10:50:26;96758.97;;;22.20;53.50
10348;BME280;5220;43.192;23.284;2022-09-12T10:52:54;96742.44;;;22.18;53.39
10348;BME280;5220;43.192;23.284;2022-09-12T10:55:30;96755.38;;;22.28;52.50
10348;BME280;5220;43.192;23.284;2022-09-12T10:58:14;96763.88;;;22.23;52.45
10348;BME280;5220;43.192;23.284;2022-09-12T11:00:51;96755.56;;;22.26;53.07
10348;BME280;5220;43.192;23.284;2022-09-12T11:03:35;96761.19;;;22.17;53.18
10348;BME280;5220;43.192;23.284;2022-09-12T11:06:07;96756.22;;;22.07;52.95
10348;BME280;5220;43.192;23.284;2022-09-12T11:08:58;96760.91;;;22.12;52.11
10348;BME280;5220;43.192;23.284;2022-09-12T11:11:44;96765.16;;;22.06;52.17
10348;BME280;5220;43.192;23.284;2022-09-12T11:14:41;96768.22;;;21.88;52.49
10348;BME280;5220;43.192;23.284;2022-09-12T11:17:22;96771.56;;;21.97;52.80
10348;BME280;5220;43.192;23.284;2022-09-12T11:20:02;96770.88;;;21.88;52.70
10348;BME280;5220;43.192;23.284;2022-09-12T11:22:44;96762.19;;;21.94;54.17
10348;BME280;5220;43.192;23.284;2022-09-12T11:25:24;96758.91;;;21.78;53.07
10348;BME280;5220;43.192;23.284;2022-09-12T11:30:50;96763.28;;;21.71;52.59
10348;BME280;5220;43.192;23.284;2022-09-12T11:33:35;96772.50;;;21.75;52.20
10348;BME280;5220;43.192;23.284;2022-09-12T11:36:14;96775.66;;;21.64;52.60
10348;BME280;5220;43.192;23.284;2022-09-12T11:38:50;96774.44;;;21.66;51.24
10348;BME280;5220;43.192;23.284;2022-09-12T11:41:22;96774.25;;;21.68;51.78
10348;BME280;5220;43.192;23.284;2022-09-12T11:43:55;96767.94;;;21.69;52.29
10348;BME280;5220;43.192;23.284;2022-09-12T11:46:29;96763.47;;;21.69;52.37
10348;BME280;5220;43.192;23.284;2022-09-12T11:49:00;96769.03;;;21.74;52.40
10348;BME280;5220;43.192;23.284;2022-09-12T11:51:34;96767.84;;;21.77;50.91
10348;BME280;5220;43.192;23.284;2022-09-12T11:54:12;96771.16;;;21.64;50.43
10348;BME280;5220;43.192;23.284;2022-09-12T11:56:45;96766.75;;;21.71;51.23
10348;BME280;5220;43.192;23.284;2022-09-12T11:59:28;96760.63;;;21.71;51.12
10348;BME280;5220;43.192;23.284;2022-09-12T12:01:58;96754.78;;;21.75;52.26
10348;BME280;5220;43.192;23.284;2022-09-12T12:04:38;96754.88;;;21.82;51.43
10348;BME280;5220;43.192;23.284;2022-09-12T12:07:09;96753.03;;;21.97;51.43
10348;BME280;5220;43.192;23.284;2022-09-12T12:09:44;96754.41;;;21.93;51.01
10348;BME280;5220;43.192;23.284;2022-09-12T12:12:16;96758.84;;;22.07;51.02
10348;BME280;5220;43.192;23.284;2022-09-12T12:18:30;96750.63;;;22.02;49.60
10348;BME280;5220;43.192;23.284;2022-09-12T12:24:21;96763.09;;;22.23;50.28
10348;BME280;5220;43.192;23.284;2022-09-12T12:36:50;96751.28;;;22.46;51.19
10348;BME280;5220;43.192;23.284;2022-09-12T12:46:05;96752.16;;;22.54;50.80
10348;BME280;5220;43.192;23.284;2022-09-12T12:55:22;96746.84;;;22.32;48.92
10348;BME280;5220;43.192;23.284;2022-09-12T12:57:51;96745.34;;;22.23;49.20
10348;BME280;5220;43.192;23.284;2022-09-12T13:00:31;96745.16;;;22.25;48.60
10348;BME280;5220;43.192;23.284;2022-09-12T13:06:06;96750.75;;;22.36;49.37
10348;BME280;5220;43.192;23.284;2022-09-12T13:12:00;96739.53;;;22.34;48.85
10348;BME280;5220;43.192;23.284;2022-09-12T13:14:57;96737.72;;;22.35;48.54
10348;BME280;5220;43.192;23.284;2022-09-12T13:17:28;96741.38;;;22.34;48.47
10348;BME280;5220;43.192;23.284;2022-09-12T13:23:37;96717.81;;;22.45;48.41
10348;BME280;5220;43.192;23.284;2022-09-12T13:26:09;96729.28;;;22.52;48.23
10348;BME280;5220;43.192;23.284;2022-09-12T13:29:11;96721.53;;;22.51;46.57
10348;BME280;5220;43.192;23.284;2022-09-12T13:32:01;96725.66;;;22.54;47.34
10348;BME280;5220;43.192;23.284;2022-09-12T13:34:30;96714.66;;;22.57;48.42
10348;BME280;5220;43.192;23.284;2022-09-12T13:40:21;96723.44;;;22.57;47.51
10348;BME280;5220;43.192;23.284;2022-09-12T13:42:51;96721.00;;;22.62;46.93
10348;BME280;5220;43.192;23.284;2022-09-12T13:49:17;96713.53;;;22.44;47.84
10348;BME280;5220;43.192;23.284;2022-09-12T13:52:17;96715.50;;;22.64;48.26
10348;BME280;5220;43.192;23.284;2022-09-12T13:54:48;96719.56;;;22.60;48.75
10348;BME280;5220;43.192;23.284;2022-09-12T13:57:27;96724.38;;;22.49;48.68
10348;BME280;5220;43.192;23.284;2022-09-12T14:00:26;96727.13;;;22.63;48.83
10348;BME280;5220;43.192;23.284;2022-09-12T14:02:55;96730.94;;;22.54;48.77
10348;BME280;5220;43.192;23.284;2022-09-12T14:05:37;96729.28;;;22.52;49.33
10348;BME280;5220;43.192;23.284;2022-09-12T14:08:08;96731.72;;;22.47;49.96
10348;BME280;5220;43.192;23.284;2022-09-12T14:10:40;96730.94;;;22.54;49.84
10348;BME280;5220;43.192;23.284;2022-09-12T14:13:10;96733.34;;;22.48;49.63
10348;BME280;5220;43.192;23.284;2022-09-12T14:25:37;96729.63;;;22.43;49.39
10348;BME280;5220;43.192;23.284;2022-09-12T14:31:41;96723.88;;;22.39;50.06
10348;BME280;5220;43.192;23.284;2022-09-12T14:41:27;96735.97;;;22.48;49.10
10348;BME280;5220;43.192;23.284;2022-09-12T14:47:25;96738.19;;;22.45;48.39
10348;BME280;5220;43.192;23.284;2022-09-12T14:49:53;96738.63;;;22.48;47.69
10348;BME280;5220;43.192;23.284;2022-09-12T14:52:40;96741.44;;;22.40;47.70
10348;BME280;5220;43.192;23.284;2022-09-12T14:58:37;96738.97;;;22.39;47.29
10348;BME280;5220;43.192;23.284;2022-09-12T15:01:23;96743.34;;;22.25;47.09
10348;BME280;5220;43.192;23.284;2022-09-12T15:10:35;96740.59;;;22.40;47.51
10348;BME280;5220;43.192;23.284;2022-09-12T15:13:09;96736.97;;;22.41;47.10
10348;BME280;5220;43.192;23.284;2022-09-12T15:15:41;96734.16;;;22.49;48.25
10348;BME280;5220;43.192;23.284;2022-09-12T15:18:08;96733.38;;;22.55;48.59
10348;BME280;5220;43.192;23.284;2022-09-12T15:20:36;96736.88;;;22.56;49.21
10348;BME280;5220;43.192;23.284;2022-09-12T15:23:04;96740.53;;;22.55;50.05
10348;BME280;5220;43.192;23.284;2022-09-12T15:25:32;96739.34;;;22.57;49.71
10348;BME280;5220;43.192;23.284;2022-09-12T15:28:31;96732.56;;;22.55;49.40
10348;BME280;5220;43.192;23.284;2022-09-12T15:31:27;96738.91;;;22.54;50.11
10348;BME280;5220;43.192;23.284;2022-09-12T15:34:01;96740.91;;;22.51;50.46
10348;BME280;5220;43.192;23.284;2022-09-12T15:36:28;96741.72;;;22.52;51.28
10348;BME280;5220;43.192;23.284;2022-09-12T15:38:55;96751.28;;;22.46;50.35
10348;BME280;5220;43.192;23.284;2022-09-12T15:41:24;96735.91;;;22.35;50.43
10348;BME280;5220;43.192;23.284;2022-09-12T15:43:52;96739.28;;;22.29;48.80